sensor_id;sensor_type;location;lat;lon;timestamp;pressure;altitude;pressure_sealevel;temperature;humidity
82222;BME280;71818;52.352;10.912;2023-10-09T00:00:05;100747.06;;;9.88;92.33
82222;BME280;71818;52.352;10.912;2023-10-09T00:02:51;100741.19;;;9.98;92.16
82222;BME280;71818;52.352;10.912;2023-10-09T00:05:16;100733.31;;;9.96;91.92
82222;BME280;71818;52.352;10.912;2023-10-09T00:07:50;100738.09;;;10.04;91.60
82222;BME280;71818;52.352;10.912;2023-10-09T00:10:21;100735.03;;;10.10;90.49
82222;BME280;71818;52.352;10.912;2023-10-09T00:12:47;100720.09;;;10.09;90.71
82222;BME280;71818;52.352;10.912;2023-10-09T00:15:14;100691.97;;;10.06;90.72
82222;BME280;71818;52.352;10.912;2023-10-09T00:17:43;100712.31;;;10.06;90.92
82222;BME280;71818;52.352;10.912;2023-10-09T00:20:12;100702.63;;;9.92;91.37
82222;BME280;71818;52.352;10.912;2023-10-09T00:22:45;100707.81;;;9.94;90.86
82222;BME280;71818;52.352;10.912;2023-10-09T00:25:11;100723.72;;;9.94;90.43
82222;BME280;71818;52.352;10.912;2023-10-09T00:27:43;100703.66;;;9.89;90.81
82222;BME280;71818;52.352;10.912;2023-10-09T00:30:12;100702.97;;;10.00;90.46
82222;BME280;71818;52.352;10.912;2023-10-09T00:32:42;100689.81;;;9.99;90.86
82222;BME280;71818;52.352;10.912;2023-10-09T00:35:16;100701.56;;;9.95;91.51
82222;BME280;71818;52.352;10.912;2023-10-09T00:38:00;100697.22;;;9.94;91.47
82222;BME280;71818;52.352;10.912;2023-10-09T00:40:32;100675.19;;;10.06;90.65
82222;BME280;71818;52.352;10.912;2023-10-09T00:43:00;100649.97;;;10.13;90.17
82222;BME280;71818;52.352;10.912;2023-10-09T00:45:31;100636.34;;;10.05;90.06
82222;BME280;71818;52.352;10.912;2023-10-09T00:47:57;100624.28;;;10.13;89.82
82222;BME280;71818;52.352;10.912;2023-10-09T00:50:26;100618.00;;;10.02;90.00
82222;BME280;71818;52.352;10.912;2023-10-09T00:52:53;100615.84;;;9.94;90.27
82222;BME280;71818;52.352;10.912;2023-10-09T00:55:42;100597.09;;;9.97;90.38
82222;BME280;71818;52.352;10.912;2023-10-09T00:58:09;100593.66;;;9.95;90.64
82222;BME280;71818;52.352;10.912;2023-10-09T01:00:39;100588.16;;;9.85;91.14
82222;BME280;71818;52.352;10.912;2023-10-09T01:03:11;100601.50;;;9.84;91.40
82222;BME280;71818;52.352;10.912;2023-10-09T01:05:53;100595.06;;;10.01;90.88
82222;BME280;71818;52.352;10.912;2023-10-09T01:08:22;100576.50;;;10.01;90.51
82222;BME280;71818;52.352;10.912;2023-10-09T01:10:56;100565.69;;;10.04;89.58
82222;BME280;71818;52.352;10.912;2023-10-09T01:16:22;100580.84;;;10.02;86.58
82222;BME280;71818;52.352;10.912;2023-10-09T01:18:51;100582.31;;;9.93;86.23
82222;BME280;71818;52.352;10.912;2023-10-09T01:21:17;100587.97;;;10.01;86.49
82222;BME280;71818;52.352;10.912;2023-10-09T01:23:44;100568.56;;;10.13;84.98
82222;BME280;71818;52.352;10.912;2023-10-09T01:26:33;100556.06;;;10.15;84.33
82222;BME280;71818;52.352;10.912;2023-10-09T01:29:22;100559.66;;;10.14;83.99
82222;BME280;71818;52.352;10.912;2023-10-09T01:31:54;100556.78;;;10.17;83.64
82222;BME280;71818;52.352;10.912;2023-10-09T01:34:24;100568.22;;;10.05;83.59
82222;BME280;71818;52.352;10.912;2023-10-09T01:36:59;100589.66;;;10.02;83.47
82222;BME280;71818;52.352;10.912;2023-10-09T01:39:30;100596.25;;;9.97;84.44
82222;BME280;71818;52.352;10.912;2023-10-09T01:41:56;100608.84;;;9.93;85.69
82222;BME280;71818;52.352;10.912;2023-10-09T01:44:29;100617.09;;;9.88;86.00
82222;BME280;71818;52.352;10.912;2023-10-09T01:47:04;100613.59;;;9.88;85.24
82222;BME280;71818;52.352;10.912;2023-10-09T01:49:38;100599.91;;;9.94;86.02
82222;BME280;71818;52.352;10.912;2023-10-09T01:52:07;100602.19;;;10.00;84.56
82222;BME280;71818;52.352;10.912;2023-10-09T01:54:38;100598.22;;;9.93;83.83
82222;BME280;71818;52.352;10.912;2023-10-09T01:57:07;100605.91;;;9.98;82.67
82222;BME280;71818;52.352;10.912;2023-10-09T01:59:40;100595.41;;;9.96;84.12
82222;BME280;71818;52.352;10.912;2023-10-09T02:02:14;100601.44;;;9.98;85.33
82222;BME280;71818;52.352;10.912;2023-10-09T02:04:58;100604.47;;;9.92;87.22
82222;BME280;71818;52.352;10.912;2023-10-09T02:07:39;100595.94;;;9.74;87.53
82222;BME280;71818;52.352;10.912;2023-10-09T02:10:17;100586.72;;;9.67;87.43
82222;BME280;71818;52.352;10.912;2023-10-09T02:13:05;100581.22;;;9.70;87.52
82222;BME280;71818;52.352;10.912;2023-10-09T02:15:39;100581.75;;;9.75;88.52
82222;BME280;71818;52.352;10.912;2023-10-09T02:18:20;100564.03;;;9.76;89.56
82222;BME280;71818;52.352;10.912;2023-10-09T02:20:50;100552.69;;;9.74;89.63
82222;BME280;71818;52.352;10.912;2023-10-09T02:23:29;100542.28;;;9.71;90.32
82222;BME280;71818;52.352;10.912;2023-10-09T02:26:14;100533.16;;;9.75;89.09
82222;BME280;71818;52.352;10.912;2023-10-09T02:28:48;100535.59;;;9.65;89.06
82222;BME280;71818;52.352;10.912;2023-10-09T02:31:23;100522.25;;;9.67;89.95
82222;BME280;71818;52.352;10.912;2023-10-09T02:33:51;100527.81;;;9.62;91.29
82222;BME280;71818;52.352;10.912;2023-10-09T02:36:21;100517.22;;;9.62;91.45
82222;BME280;71818;52.352;10.912;2023-10-09T02:38:46;100514.19;;;9.68;91.69
82222;BME280;71818;52.352;10.912;2023-10-09T02:41:15;100507.28;;;9.66;92.28
82222;BME280;71818;52.352;10.912;2023-10-09T02:43:40;100496.16;;;9.73;91.83
82222;BME280;71818;52.352;10.912;2023-10-09T02:46:16;100490.09;;;9.71;91.97
82222;BME280;71818;52.352;10.912;2023-10-09T02:48:49;100484.50;;;9.76;91.79
82222;BME280;71818;52.352;10.912;2023-10-09T02:51:22;100475.56;;;9.77;91.90
82222;BME280;71818;52.352;10.912;2023-10-09T02:53:57;100465.06;;;9.75;92.15
82222;BME280;71818;52.352;10.912;2023-10-09T02:56:26;100473.13;;;9.74;92.57
82222;BME280;71818;52.352;10.912;2023-10-09T02:59:13;100479.41;;;9.73;92.50
82222;BME280;71818;52.352;10.912;2023-10-09T03:01:39;100469.44;;;9.76;92.41
82222;BME280;71818;52.352;10.912;2023-10-09T03:04:06;100471.88;;;9.79;92.70
82222;BME280;71818;52.352;10.912;2023-10-09T03:06:33;100468.56;;;9.76;92.11
82222;BME280;71818;52.352;10.912;2023-10-09T03:09:00;100459.66;;;9.77;92.14
82222;BME280;71818;52.352;10.912;2023-10-09T03:11:26;100450.56;;;9.81;91.76
82222;BME280;71818;52.352;10.912;2023-10-09T03:13:57;100446.31;;;9.91;90.46
82222;BME280;71818;52.352;10.912;2023-10-09T03:16:23;100423.91;;;9.95;90.46
82222;BME280;71818;52.352;10.912;2023-10-09T03:18:52;100424.78;;;9.83;90.38
82222;BME280;71818;52.352;10.912;2023-10-09T03:21:20;100412.91;;;9.76;91.22
82222;BME280;71818;52.352;10.912;2023-10-09T03:23:47;100407.91;;;9.71;90.97
82222;BME280;71818;52.352;10.912;2023-10-09T03:26:19;100390.31;;;9.70;91.29
82222;BME280;71818;52.352;10.912;2023-10-09T03:28:46;100384.81;;;9.73;91.43
82222;BME280;71818;52.352;10.912;2023-10-09T03:31:12;100390.53;;;9.67;91.17
82222;BME280;71818;52.352;10.912;2023-10-09T03:33:38;100381.84;;;9.65;91.81
82222;BME280;71818;52.352;10.912;2023-10-09T03:36:04;100374.81;;;9.64;91.94
82222;BME280;71818;52.352;10.912;2023-10-09T03:38:40;100364.88;;;9.68;92.22
82222;BME280;71818;52.352;10.912;2023-10-09T03:41:07;100366.25;;;9.73;92.28
82222;BME280;71818;52.352;10.912;2023-10-09T03:43:38;100381.63;;;9.68;92.52
82222;BME280;71818;52.352;10.912;2023-10-09T03:46:10;100375.66;;;9.65;92.66
82222;BME280;71818;52.352;10.912;2023-10-09T03:48:51;100365.00;;;9.66;92.97
82222;BME280;71818;52.352;10.912;2023-10-09T03:51:17;100369.00;;;9.72;92.47
82222;BME280;71818;52.352;10.912;2023-10-09T03:53:50;100375.25;;;9.71;91.22
82222;BME280;71818;52.352;10.912;2023-10-09T03:56:17;100369.75;;;9.74;91.17
82222;BME280;71818;52.352;10.912;2023-10-09T03:58:44;100379.50;;;9.73;91.59
82222;BME280;71818;52.352;10.912;2023-10-09T04:03:54;100366.88;;;9.64;92.75
82222;BME280;71818;52.352;10.912;2023-10-09T04:06:27;100364.31;;;9.63;93.77
82222;BME280;71818;52.352;10.912;2023-10-09T04:09:08;100361.50;;;9.66;94.30
82222;BME280;71818;52.352;10.912;2023-10-09T04:11:44;100371.97;;;9.67;94.46
82222;BME280;71818;52.352;10.912;2023-10-09T04:14:12;100374.75;;;9.66;94.59
82222;BME280;71818;52.352;10.912;2023-10-09T04:16:50;100362.53;;;9.76;94.58
82222;BME280;71818;52.352;10.912;2023-10-09T04:19:48;100363.25;;;9.78;94.03
82222;BME280;71818;52.352;10.912;2023-10-09T04:22:34;100355.00;;;9.82;93.68
82222;BME280;71818;52.352;10.912;2023-10-09T04:25:04;100355.13;;;9.81;93.42
82222;BME280;71818;52.352;10.912;2023-10-09T04:27:33;100353.59;;;9.89;93.50
82222;BME280;71818;52.352;10.912;2023-10-09T04:30:02;100359.41;;;9.95;93.79
82222;BME280;71818;52.352;10.912;2023-10-09T04:32:28;100347.22;;;9.92;93.96
82222;BME280;71818;52.352;10.912;2023-10-09T04:34:54;100352.97;;;9.86;94.23
82222;BME280;71818;52.352;10.912;2023-10-09T04:37:42;100354.34;;;9.79;94.25
82222;BME280;71818;52.352;10.912;2023-10-09T04:40:10;100350.22;;;9.87;94.58
82222;BME280;71818;52.352;10.912;2023-10-09T04:42:52;100351.47;;;9.95;94.07
82222;BME280;71818;52.352;10.912;2023-10-09T04:45:24;100353.72;;;9.88;94.17
82222;BME280;71818;52.352;10.912;2023-10-09T04:48:08;100348.53;;;9.86;94.33
82222;BME280;71818;52.352;10.912;2023-10-09T04:50:35;100345.53;;;9.78;94.76
82222;BME280;71818;52.352;10.912;2023-10-09T04:53:01;100345.66;;;9.77;95.42
82222;BME280;71818;52.352;10.912;2023-10-09T04:55:46;100338.13;;;9.83;95.54
82222;BME280;71818;52.352;10.912;2023-10-09T04:58:25;100341.00;;;9.80;95.29
82222;BME280;71818;52.352;10.912;2023-10-09T05:00:54;100336.34;;;9.84;95.52
82222;BME280;71818;52.352;10.912;2023-10-09T05:03:22;100338.25;;;9.82;96.19
82222;BME280;71818;52.352;10.912;2023-10-09T05:06:08;100332.41;;;9.77;96.37
82222;BME280;71818;52.352;10.912;2023-10-09T05:08:47;100334.53;;;9.72;96.63
82222;BME280;71818;52.352;10.912;2023-10-09T05:11:14;100338.44;;;9.79;97.08
82222;BME280;71818;52.352;10.912;2023-10-09T05:14:12;100336.75;;;9.78;97.29
82222;BME280;71818;52.352;10.912;2023-10-09T05:16:38;100336.84;;;9.76;97.39
82222;BME280;71818;52.352;10.912;2023-10-09T05:19:20;100338.13;;;9.83;97.49
82222;BME280;71818;52.352;10.912;2023-10-09T05:21:55;100344.81;;;9.89;98.01
82222;BME280;71818;52.352;10.912;2023-10-09T05:24:24;100354.34;;;9.92;97.99
82222;BME280;71818;52.352;10.912;2023-10-09T05:26:51;100345.44;;;9.93;97.99
82222;BME280;71818;52.352;10.912;2023-10-09T05:29:18;100349.25;;;9.88;98.02
82222;BME280;71818;52.352;10.912;2023-10-09T05:32:06;100356.88;;;9.93;98.43
82222;BME280;71818;52.352;10.912;2023-10-09T05:34:38;100360.38;;;9.94;98.43
82222;BME280;71818;52.352;10.912;2023-10-09T05:37:22;100358.56;;;9.94;98.51
82222;BME280;71818;52.352;10.912;2023-10-09T05:39:54;100351.38;;;9.96;98.32
82222;BME280;71818;52.352;10.912;2023-10-09T05:42:24;100352.13;;;9.98;98.73
82222;BME280;71818;52.352;10.912;2023-10-09T05:44:54;100358.28;;;9.99;98.78
82222;BME280;71818;52.352;10.912;2023-10-09T05:47:38;100350.44;;;9.97;98.73
82222;BME280;71818;52.352;10.912;2023-10-09T05:50:13;100356.88;;;9.93;98.58
82222;BME280;71818;52.352;10.912;2023-10-09T05:52:38;100363.69;;;9.97;99.01
82222;BME280;71818;52.352;10.912;2023-10-09T05:55:05;100368.66;;;10.02;99.43
82222;BME280;71818;52.352;10.912;2023-10-09T05:57:52;100368.66;;;10.02;99.70
82222;BME280;71818;52.352;10.912;2023-10-09T06:00:24;100369.00;;;9.97;99.79
82222;BME280;71818;52.352;10.912;2023-10-09T06:03:08;100382.13;;;9.99;99.78
82222;BME280;71818;52.352;10.912;2023-10-09T06:05:49;100398.91;;;9.99;99.87
82222;BME280;71818;52.352;10.912;2023-10-09T06:08:18;100391.56;;;10.03;99.99
82222;BME280;71818;52.352;10.912;2023-10-09T06:10:51;100387.22;;;10.02;100.00
82222;BME280;71818;52.352;10.912;2023-10-09T06:26:20;100367.81;;;9.76;100.00
82222;BME280;71818;52.352;10.912;2023-10-09T06:28:49;100365.72;;;9.68;100.00
82222;BME280;71818;52.352;10.912;2023-10-09T06:31:35;100364.13;;;9.66;100.00
82222;BME280;71818;52.352;10.912;2023-10-09T06:34:20;100375.16;;;9.72;100.00
82222;BME280;71818;52.352;10.912;2023-10-09T06:36:56;100372.84;;;9.80;100.00
82222;BME280;71818;52.352;10.912;2023-10-09T06:39:28;100379.72;;;9.83;100.00
82222;BME280;71818;52.352;10.912;2023-10-09T06:42:11;100380.88;;;9.79;100.00
82222;BME280;71818;52.352;10.912;2023-10-09T06:44:59;100403.38;;;9.86;100.00
82222;BME280;71818;52.352;10.912;2023-10-09T06:47:24;100406.75;;;9.88;100.00
82222;BME280;71818;52.352;10.912;2023-10-09T06:49:50;100408.88;;;9.83;100.00
82222;BME280;71818;52.352;10.912;2023-10-09T06:52:35;100419.50;;;9.83;100.00
82222;BME280;71818;52.352;10.912;2023-10-09T06:55:20;100420.75;;;9.90;100.00
82222;BME280;71818;52.352;10.912;2023-10-09T06:57:57;100414.72;;;9.88;100.00
82222;BME280;71818;52.352;10.912;2023-10-09T07:00:29;100385.03;;;9.83;100.00
82222;BME280;71818;52.352;10.912;2023-10-09T07:03:13;100386.81;;;9.82;100.00
82222;BME280;71818;52.352;10.912;2023-10-09T07:05:39;100410.38;;;9.87;100.00
82222;BME280;71818;52.352;10.912;2023-10-09T07:08:30;100405.47;;;9.94;100.00
82222;BME280;71818;52.352;10.912;2023-10-09T07:11:03;100408.97;;;9.94;100.00
82222;BME280;71818;52.352;10.912;2023-10-09T07:14:00;100405.91;;;10.00;100.00
82222;BME280;71818;52.352;10.912;2023-10-09T07:16:27;100417.34;;;10.01;100.00
82222;BME280;71818;52.352;10.912;2023-10-09T07:19:04;100410.97;;;10.03;100.00
82222;BME280;71818;52.352;10.912;2023-10-09T07:21:50;100379.66;;;10.08;100.00
82222;BME280;71818;52.352;10.912;2023-10-09T07:24:19;100375.63;;;10.15;100.00
82222;BME280;71818;52.352;10.912;2023-10-09T07:26:59;100377.75;;;10.10;100.00
82222;BME280;71818;52.352;10.912;2023-10-09T07:29:31;100365.66;;;10.19;100.00
82222;BME280;71818;52.352;10.912;2023-10-09T07:32:13;100370.34;;;10.28;100.00
82222;BME280;71818;52.352;10.912;2023-10-09T07:34:45;100371.72;;;10.21;100.00
82222;BME280;71818;52.352;10.912;2023-10-09T07:37:28;100393.03;;;10.19;100.00
82222;BME280;71818;52.352;10.912;2023-10-09T07:40:02;100393.56;;;10.25;100.00
82222;BME280;71818;52.352;10.912;2023-10-09T07:42:32;100394.41;;;10.25;100.00
82222;BME280;71818;52.352;10.912;2023-10-09T07:45:11;100403.34;;;10.24;100.00
82222;BME280;71818;52.352;10.912;2023-10-09T07:47:49;100400.38;;;10.29;100.00
82222;BME280;71818;52.352;10.912;2023-10-09T07:50:37;100396.03;;;10.28;100.00
82222;BME280;71818;52.352;10.912;2023-10-09T07:53:06;100409.28;;;10.28;100.00
82222;BME280;71818;52.352;10.912;2023-10-09T07:55:51;100408.09;;;10.19;100.00
82222;BME280;71818;52.352;10.912;2023-10-09T07:58:21;100393.78;;;10.22;100.00
82222;BME280;71818;52.352;10.912;2023-10-09T08:00:52;100394.31;;;10.14;100.00
82222;BME280;71818;52.352;10.912;2023-10-09T08:03:26;100385.81;;;10.09;100.00
82222;BME280;71818;52.352;10.912;2023-10-09T08:05:57;100386.75;;;10.21;100.00
82222;BME280;71818;52.352;10.912;2023-10-09T08:08:33;100382.53;;;10.18;100.00
82222;BME280;71818;52.352;10.912;2023-10-09T08:10:58;100389.94;;;10.26;100.00
82222;BME280;71818;52.352;10.912;2023-10-09T08:13:44;100388.91;;;10.28;100.00
82222;BME280;71818;52.352;10.912;2023-10-09T08:16:22;100401.84;;;10.33;100.00
82222;BME280;71818;52.352;10.912;2023-10-09T08:18:49;100396.19;;;10.37;100.00
82222;BME280;71818;52.352;10.912;2023-10-09T08:21:19;100394.28;;;10.39;100.00
82222;BME280;71818;52.352;10.912;2023-10-09T08:23:45;100398.56;;;10.29;100.00
82222;BME280;71818;52.352;10.912;2023-10-09T08:26:14;100394.34;;;10.27;100.00
82222;BME280;71818;52.352;10.912;2023-10-09T08:28:41;100388.81;;;10.30;100.00
82222;BME280;71818;52.352;10.912;2023-10-09T08:31:12;100378.34;;;10.39;100.00
82222;BME280;71818;52.352;10.912;2023-10-09T08:33:56;100363.19;;;10.41;100.00
82222;BME280;71818;52.352;10.912;2023-10-09T08:36:27;100357.00;;;10.41;100.00
82222;BME280;71818;52.352;10.912;2023-10-09T08:39:02;100364.81;;;10.31;100.00
82222;BME280;71818;52.352;10.912;2023-10-09T08:41:42;100371.25;;;10.40;100.00
82222;BME280;71818;52.352;10.912;2023-10-09T08:44:11;100371.66;;;10.46;100.00
82222;BME280;71818;52.352;10.912;2023-10-09T08:46:37;100370.88;;;10.57;100.00
82222;BME280;71818;52.352;10.912;2023-10-09T08:49:05;100369.91;;;10.58;100.00
82222;BME280;71818;52.352;10.912;2023-10-09T08:51:34;100391.91;;;10.60;100.00
82222;BME280;71818;52.352;10.912;2023-10-09T08:54:00;100372.22;;;10.63;100.00
82222;BME280;71818;52.352;10.912;2023-10-09T08:56:25;100379.31;;;10.75;100.00
82222;BME280;71818;52.352;10.912;2023-10-09T08:58:52;100370.19;;;10.90;100.00
82222;BME280;71818;52.352;10.912;2023-10-09T09:01:20;100369.84;;;10.95;100.00
82222;BME280;71818;52.352;10.912;2023-10-09T09:03:47;100367.34;;;11.04;100.00
82222;BME280;71818;52.352;10.912;2023-10-09T09:06:13;100366.03;;;11.10;100.00
82222;BME280;71818;52.352;10.912;2023-10-09T09:08:40;100364.34;;;11.09;100.00
82222;BME280;71818;52.352;10.912;2023-10-09T09:11:09;100366.84;;;10.99;100.00
82222;BME280;71818;52.352;10.912;2023-10-09T09:13:43;100368.28;;;10.92;100.00
82222;BME280;71818;52.352;10.912;2023-10-09T09:16:18;100371.28;;;10.88;100.00
82222;BME280;71818;52.352;10.912;2023-10-09T09:18:55;100368.38;;;10.91;100.00
82222;BME280;71818;52.352;10.912;2023-10-09T09:21:36;100372.38;;;10.96;100.00
82222;BME280;71818;52.352;10.912;2023-10-09T09:24:08;100363.81;;;10.93;100.00
82222;BME280;71818;52.352;10.912;2023-10-09T09:27:00;100358.50;;;10.93;100.00
82222;BME280;71818;52.352;10.912;2023-10-09T09:32:05;100352.72;;;10.99;100.00
82222;BME280;71818;52.352;10.912;2023-10-09T09:34:50;100360.44;;;11.02;100.00
82222;BME280;71818;52.352;10.912;2023-10-09T09:37:27;100363.94;;;11.02;100.00
82222;BME280;71818;52.352;10.912;2023-10-09T09:40:00;100358.88;;;10.99;100.00
82222;BME280;71818;52.352;10.912;2023-10-09T09:42:29;100354.81;;;11.06;100.00
82222;BME280;71818;52.352;10.912;2023-10-09T09:45:00;100359.50;;;11.03;100.00
82222;BME280;71818;52.352;10.912;2023-10-09T09:47:27;100351.31;;;11.06;100.00
82222;BME280;71818;52.352;10.912;2023-10-09T09:49:56;100359.63;;;11.13;100.00
82222;BME280;71818;52.352;10.912;2023-10-09T09:52:31;100353.34;;;11.14;100.00
82222;BME280;71818;52.352;10.912;2023-10-09T09:55:08;100354.81;;;11.18;100.00
82222;BME280;71818;52.352;10.912;2023-10-09T09:57:48;100363.06;;;11.26;100.00
82222;BME280;71818;52.352;10.912;2023-10-09T10:00:20;100359.56;;;11.25;100.00
82222;BME280;71818;52.352;10.912;2023-10-09T10:02:54;100364.41;;;11.31;100.00
82222;BME280;71818;52.352;10.912;2023-10-09T10:05:24;100355.50;;;11.44;100.00
82222;BME280;71818;52.352;10.912;2023-10-09T10:07:56;100351.88;;;11.45;100.00
82222;BME280;71818;52.352;10.912;2023-10-09T10:10:41;100347.91;;;11.61;100.00
82222;BME280;71818;52.352;10.912;2023-10-09T10:16:10;100353.81;;;11.54;100.00
82222;BME280;71818;52.352;10.912;2023-10-09T10:21:35;100363.13;;;11.59;100.00
82222;BME280;71818;52.352;10.912;2023-10-09T10:27:22;100358.44;;;11.74;100.00
82222;BME280;71818;52.352;10.912;2023-10-09T10:30:26;100350.88;;;11.81;100.00
82222;BME280;71818;52.352;10.912;2023-10-09T10:32:58;100352.19;;;11.86;100.00
82222;BME280;71818;52.352;10.912;2023-10-09T10:35:35;100352.66;;;11.91;100.00
82222;BME280;71818;52.352;10.912;2023-10-09T10:38:26;100355.31;;;12.03;100.00
82222;BME280;71818;52.352;10.912;2023-10-09T10:43:38;100345.28;;;12.06;100.00
82222;BME280;71818;52.352;10.912;2023-10-09T10:46:18;100353.13;;;12.08;100.00
82222;BME280;71818;52.352;10.912;2023-10-09T10:48:53;100355.31;;;12.03;100.00
82222;BME280;71818;52.352;10.912;2023-10-09T10:51:26;100336.69;;;12.14;100.00
82222;BME280;71818;52.352;10.912;2023-10-09T10:54:01;100348.19;;;12.14;100.00
82222;BME280;71818;52.352;10.912;2023-10-09T10:56:46;100353.84;;;12.21;100.00
82222;BME280;71818;52.352;10.912;2023-10-09T10:59:17;100346.13;;;12.29;100.00
82222;BME280;71818;52.352;10.912;2023-10-09T11:01:51;100344.63;;;12.36;100.00
82222;BME280;71818;52.352;10.912;2023-10-09T11:04:46;100351.66;;;12.37;100.00
82222;BME280;71818;52.352;10.912;2023-10-09T11:07:21;100350.09;;;12.35;100.00
82222;BME280;71818;52.352;10.912;2023-10-09T11:09:55;100349.50;;;12.31;100.00
82222;BME280;71818;52.352;10.912;2023-10-09T11:12:27;100340.25;;;12.57;100.00
82222;BME280;71818;52.352;10.912;2023-10-09T11:15:05;100340.88;;;12.82;100.00
82222;BME280;71818;52.352;10.912;2023-10-09T11:17:35;100336.22;;;12.95;100.00
82222;BME280;71818;52.352;10.912;2023-10-09T11:20:05;100342.22;;;13.08;100.00
82222;BME280;71818;52.352;10.912;2023-10-09T11:22:51;100342.38;;;13.16;100.00
82222;BME280;71818;52.352;10.912;2023-10-09T11:25:33;100349.34;;;13.19;100.00
82222;BME280;71818;52.352;10.912;2023-10-09T11:27:58;100348.09;;;13.23;100.00
82222;BME280;71818;52.352;10.912;2023-10-09T11:30:40;100341.38;;;13.29;100.00
82222;BME280;71818;52.352;10.912;2023-10-09T11:33:06;100342.31;;;13.39;100.00
82222;BME280;71818;52.352;10.912;2023-10-09T11:35:39;100337.81;;;13.39;100.00
82222;BME280;71818;52.352;10.912;2023-10-09T11:38:06;100336.56;;;13.43;100.00
82222;BME280;71818;52.352;10.912;2023-10-09T11:40:46;100330.59;;;13.51;100.00
82222;BME280;71818;52.352;10.912;2023-10-09T11:43:18;100339.56;;;13.50;100.00
82222;BME280;71818;52.352;10.912;2023-10-09T11:45:49;100331.31;;;13.53;100.00
82222;BME280;71818;52.352;10.912;2023-10-09T11:48:21;100337.06;;;13.58;100.00
82222;BME280;71818;52.352;10.912;2023-10-09T11:51:12;100329.22;;;13.57;100.00
82222;BME280;71818;52.352;10.912;2023-10-09T11:53:44;100322.63;;;13.61;100.00
82222;BME280;71818;52.352;10.912;2023-10-09T11:56:16;100331.59;;;13.60;100.00
82222;BME280;71818;52.352;10.912;2023-10-09T11:58:49;100328.09;;;13.59;100.00
82222;BME280;71818;52.352;10.912;2023-10-09T12:01:18;100318.97;;;13.62;100.00
82222;BME280;71818;52.352;10.912;2023-10-09T12:03:50;100321.53;;;13.63;100.00
82222;BME280;71818;52.352;10.912;2023-10-09T12:06:18;100324.91;;;13.65;100.00
82222;BME280;71818;52.352;10.912;2023-10-09T12:08:55;100324.22;;;13.63;100.00
82222;BME280;71818;52.352;10.912;2023-10-09T12:11:23;100315.31;;;13.63;100.00
82222;BME280;71818;52.352;10.912;2023-10-09T12:13:54;100311.72;;;13.64;100.00
82222;BME280;71818;52.352;10.912;2023-10-09T12:16:26;100321.41;;;13.65;100.00
82222;BME280;71818;52.352;10.912;2023-10-09T12:18:57;100315.09;;;13.66;100.00
82222;BME280;71818;52.352;10.912;2023-10-09T12:21:23;100319.31;;;13.68;100.00
82222;BME280;71818;52.352;10.912;2023-10-09T12:23:48;100329.97;;;13.68;100.00
82222;BME280;71818;52.352;10.912;2023-10-09T12:26:14;100319.88;;;13.72;100.00
82222;BME280;71818;52.352;10.912;2023-10-09T12:28:40;100324.81;;;13.76;100.00
82222;BME280;71818;52.352;10.912;2023-10-09T12:31:10;100324.66;;;13.78;100.00
82222;BME280;71818;52.352;10.912;2023-10-09T12:33:35;100315.31;;;13.84;100.00
82222;BME280;71818;52.352;10.912;2023-10-09T12:36:04;100317.41;;;13.80;100.00
82222;BME280;71818;52.352;10.912;2023-10-09T12:38:30;100314.31;;;13.85;100.00
82222;BME280;71818;52.352;10.912;2023-10-09T12:41:05;100317.41;;;13.90;100.00
82222;BME280;71818;52.352;10.912;2023-10-09T12:43:43;100313.06;;;13.89;100.00
82222;BME280;71818;52.352;10.912;2023-10-09T12:46:08;100325.88;;;13.95;100.00
82222;BME280;71818;52.352;10.912;2023-10-09T12:48:34;100326.53;;;13.87;100.00
82222;BME280;71818;52.352;10.912;2023-10-09T12:51:01;100332.59;;;13.89;100.00
82222;BME280;71818;52.352;10.912;2023-10-09T12:53:32;100328.09;;;13.90;100.00
82222;BME280;71818;52.352;10.912;2023-10-09T12:55:58;100323.47;;;13.92;100.00
82222;BME280;71818;52.352;10.912;2023-10-09T12:58:23;100325.28;;;13.91;100.00
82222;BME280;71818;52.352;10.912;2023-10-09T13:00:52;100327.13;;;13.91;100.00
82222;BME280;71818;52.352;10.912;2023-10-09T13:03:17;100330.50;;;13.93;100.00
82222;BME280;71818;52.352;10.912;2023-10-09T13:05:51;100327.97;;;13.91;100.00
82222;BME280;71818;52.352;10.912;2023-10-09T13:08:24;100332.44;;;13.91;100.00
82222;BME280;71818;52.352;10.912;2023-10-09T13:10:56;100321.78;;;13.91;100.00
82222;BME280;71818;52.352;10.912;2023-10-09T13:13:27;100321.53;;;13.94;100.00
82222;BME280;71818;52.352;10.912;2023-10-09T13:16:05;100325.75;;;13.96;100.00
82222;BME280;71818;52.352;10.912;2023-10-09T13:18:32;100327.56;;;13.96;100.00
82222;BME280;71818;52.352;10.912;2023-10-09T13:20:57;100315.91;;;13.97;100.00
82222;BME280;71818;52.352;10.912;2023-10-09T13:23:22;100328.00;;;14.01;100.00
82222;BME280;71818;52.352;10.912;2023-10-09T13:25:59;100323.66;;;14.00;100.00
82222;BME280;71818;52.352;10.912;2023-10-09T13:28:31;100320.13;;;13.99;100.00
82222;BME280;71818;52.352;10.912;2023-10-09T13:30:57;100319.28;;;13.99;100.00
82222;BME280;71818;52.352;10.912;2023-10-09T13:33:22;100319.44;;;13.97;100.00
82222;BME280;71818;52.352;10.912;2023-10-09T13:35:47;100321.97;;;13.99;100.00
82222;BME280;71818;52.352;10.912;2023-10-09T13:38:16;100325.75;;;13.96;100.00
82222;BME280;71818;52.352;10.912;2023-10-09T13:40:42;100317.88;;;13.95;100.00